Time;durP1;ratioP1;P1;durP2;ratioP2;P2;SDS_P1;SDS_P2;PMS_P1;PMS_P2;Temp;Humidity;BMP_temperature;BMP_pressure;BME280_temperature;BME280_humidity;BME280_pressure;Samples;Min_cycle;Max_cycle;Signal;HPM_P1;HPM_P2
2021/11/22 00:00:27;;;;;;;23.08;12.70;;;7.90;99.90;;;;;;2096359;28;20079;-74
2021/11/22 00:01:30;;;;;;;23.92;13.77;;;7.90;99.90;;;;;;2096839;28;20043;-75
2021/11/22 00:02:31;;;;;;;27.17;15.20;;;7.90;99.90;;;;;;2096955;28;20373;-76
2021/11/22 00:03:33;;;;;;;25.58;13.77;;;8.00;99.90;;;;;;2097171;28;20086;-76
2021/11/22 00:04:33;;;;;;;28.92;14.95;;;8.00;99.90;;;;;;2096556;28;20024;-76
2021/11/22 00:05:34;;;;;;;24.77;14.75;;;8.00;99.90;;;;;;2096398;28;20079;-75
2021/11/22 00:06:35;;;;;;;24.70;13.95;;;8.00;99.90;;;;;;2097185;28;20043;-75
2021/11/22 00:07:36;;;;;;;24.40;13.88;;;8.00;99.90;;;;;;2097233;28;20024;-75
2021/11/22 00:08:38;;;;;;;25.55;14.20;;;8.00;99.90;;;;;;2097000;28;20392;-75
2021/11/22 00:09:38;;;;;;;25.58;14.10;;;8.00;99.90;;;;;;2097442;28;20143;-74
2021/11/22 00:10:39;;;;;;;22.67;12.98;;;8.00;99.90;;;;;;2096955;28;20032;-75
2021/11/22 00:11:40;;;;;;;23.08;13.02;;;8.00;99.90;;;;;;2096916;28;20013;-75
2021/11/22 00:12:41;;;;;;;21.27;12.85;;;8.00;99.90;;;;;;2097187;28;20028;-75
2021/11/22 00:13:42;;;;;;;26.23;13.68;;;8.00;99.90;;;;;;2097359;28;20230;-75
2021/11/22 00:14:42;;;;;;;24.90;14.63;;;7.90;99.90;;;;;;2096738;28;20036;-74
2021/11/22 00:15:43;;;;;;;21.33;12.65;;;7.90;99.90;;;;;;2097071;28;20024;-74
2021/11/22 00:16:44;;;;;;;23.48;12.80;;;7.90;99.90;;;;;;2096860;28;20028;-74
2021/11/22 00:17:46;;;;;;;25.80;14.30;;;7.90;99.90;;;;;;2096956;28;20035;-73
2021/11/22 00:18:47;;;;;;;24.55;13.05;;;7.90;99.90;;;;;;2096259;28;20029;-73
2021/11/22 00:19:48;;;;;;;23.48;13.35;;;7.90;99.90;;;;;;2097111;28;20017;-75
2021/11/22 00:20:49;;;;;;;21.98;12.98;;;7.90;99.90;;;;;;2096333;28;20480;-77
2021/11/22 00:21:49;;;;;;;23.77;12.85;;;7.90;99.90;;;;;;2095741;28;20431;-71
2021/11/22 00:22:51;;;;;;;19.20;12.32;;;7.90;99.90;;;;;;2096911;28;20028;-72
2021/11/22 00:23:53;;;;;;;27.83;13.98;;;7.90;99.90;;;;;;2096953;28;20021;-72
2021/11/22 00:24:54;;;;;;;21.25;12.60;;;7.90;99.90;;;;;;2097005;28;20078;-75
2021/11/22 00:25:55;;;;;;;25.77;13.70;;;7.90;99.90;;;;;;2097192;28;20025;-73
2021/11/22 00:26:56;;;;;;;24.02;13.35;;;7.80;99.90;;;;;;2097080;28;20036;-73
2021/11/22 00:27:57;;;;;;;28.90;13.63;;;7.80;99.90;;;;;;2096786;28;20162;-73
2021/11/22 00:29:27;;;;;;;25.02;12.43;;;7.80;99.90;;;;;;2095791;28;20108;-74
2021/11/22 00:30:47;;;;;;;29.15;14.45;;;7.80;99.90;;;;;;2104268;28;20032;-72
2021/11/22 00:31:52;;;;;;;27.58;13.50;;;7.80;99.90;;;;;;2095768;28;20021;-75
2021/11/22 00:33:08;;;;;;;22.45;12.48;;;7.80;99.90;;;;;;2090071;28;20424;-73
2021/11/22 00:34:21;;;;;;;22.73;12.45;;;7.80;99.90;;;;;;2100213;28;20131;-73
2021/11/22 00:35:50;;;;;;;21.00;12.43;;;7.80;99.90;;;;;;2104634;28;20469;-74
2021/11/22 00:36:51;;;;;;;21.15;12.07;;;7.90;99.90;;;;;;2104257;28;20032;-74
2021/11/22 00:37:52;;;;;;;23.23;11.82;;;7.90;99.90;;;;;;2104762;28;20024;-75
2021/11/22 00:38:53;;;;;;;19.30;11.80;;;7.80;99.90;;;;;;2104476;28;20065;-75
2021/11/22 00:39:53;;;;;;;26.55;12.88;;;7.90;99.90;;;;;;2105297;28;20024;-75
2021/11/22 00:40:54;;;;;;;22.88;13.15;;;7.90;99.90;;;;;;2107050;28;20042;-75
2021/11/22 00:41:55;;;;;;;24.17;12.32;;;7.90;99.90;;;;;;2108112;28;20019;-75
2021/11/22 00:42:56;;;;;;;25.58;12.45;;;7.80;99.90;;;;;;2108439;28;20024;-73
2021/11/22 00:43:57;;;;;;;19.73;11.50;;;7.90;99.90;;;;;;2110256;28;20066;-75
2021/11/22 00:44:58;;;;;;;23.02;11.70;;;7.90;99.90;;;;;;2110246;28;20035;-74
2021/11/22 00:45:59;;;;;;;18.73;11.90;;;7.90;99.90;;;;;;2111345;28;20016;-74
2021/11/22 00:47:00;;;;;;;21.33;11.63;;;7.90;99.90;;;;;;2111339;28;20796;-76
2021/11/22 00:48:01;;;;;;;20.00;11.50;;;7.90;99.90;;;;;;2104058;28;20029;-72
2021/11/22 00:49:03;;;;;;;19.60;11.02;;;7.90;99.90;;;;;;2099147;28;20028;-74
2021/11/22 00:50:04;;;;;;;22.35;11.70;;;7.90;99.90;;;;;;2107501;28;20028;-73
2021/11/22 00:51:05;;;;;;;19.30;11.27;;;7.90;99.90;;;;;;2107000;28;20483;-72
2021/11/22 00:52:06;;;;;;;25.85;12.95;;;7.90;99.90;;;;;;2097948;28;20052;-73
2021/11/22 00:53:07;;;;;;;25.42;12.77;;;7.90;99.90;;;;;;2106110;28;20063;-73
2021/11/22 00:54:08;;;;;;;19.30;12.00;;;7.90;99.90;;;;;;2106831;28;20482;-72
2021/11/22 00:55:09;;;;;;;21.90;11.82;;;7.90;99.90;;;;;;2101492;28;20063;-71
2021/11/22 00:56:16;;;;;;;19.80;11.13;;;7.90;99.90;;;;;;2105074;28;20391;-71
2021/11/22 00:57:17;;;;;;;17.98;10.82;;;7.90;99.90;;;;;;2106454;28;20024;-72
2021/11/22 00:58:18;;;;;;;21.30;12.43;;;7.90;99.90;;;;;;2106455;28;20123;-71
2021/11/22 00:59:19;;;;;;;21.27;11.68;;;7.90;99.90;;;;;;2106477;28;20043;-71
2021/11/22 01:00:21;;;;;;;22.80;11.98;;;7.90;99.90;;;;;;2106447;28;20028;-71
2021/11/22 01:01:22;;;;;;;21.48;11.48;;;7.90;99.90;;;;;;2106300;28;20020;-71
2021/11/22 01:02:23;;;;;;;21.00;11.93;;;7.90;99.90;;;;;;2098833;28;20603;-71
2021/11/22 01:03:23;;;;;;;16.38;10.52;;;7.90;99.90;;;;;;2107480;28;20546;-72
2021/11/22 01:04:25;;;;;;;21.67;11.88;;;7.90;99.90;;;;;;2108570;28;20107;-72
2021/11/22 01:05:26;;;;;;;26.15;12.95;;;7.90;99.90;;;;;;2107451;28;20101;-71
2021/11/22 01:06:26;;;;;;;25.10;12.68;;;7.80;99.90;;;;;;2106878;28;20051;-71
2021/11/22 01:07:27;;;;;;;25.27;13.68;;;7.80;99.90;;;;;;2097883;28;20396;-71
2021/11/22 01:08:28;;;;;;;26.90;14.32;;;7.80;99.90;;;;;;2097369;28;20032;-71
2021/11/22 01:09:30;;;;;;;23.75;12.75;;;7.80;99.90;;;;;;2106974;28;20081;-73
2021/11/22 01:10:31;;;;;;;24.85;13.18;;;7.80;99.90;;;;;;2106578;28;20028;-73
2021/11/22 01:11:32;;;;;;;21.80;12.35;;;7.80;99.90;;;;;;2106080;28;20036;-73
2021/11/22 01:12:34;;;;;;;22.33;12.30;;;7.80;99.90;;;;;;2106442;28;20035;-73
2021/11/22 01:13:35;;;;;;;19.92;12.05;;;7.80;99.90;;;;;;2105956;28;20032;-73
2021/11/22 01:14:36;;;;;;;19.60;11.52;;;7.80;99.90;;;;;;2105841;28;20107;-73
2021/11/22 01:15:37;;;;;;;19.35;11.23;;;7.80;99.90;;;;;;2106511;28;20024;-73
2021/11/22 01:16:39;;;;;;;27.67;13.90;;;7.80;99.90;;;;;;2106499;28;20650;-73
2021/11/22 01:17:41;;;;;;;25.30;13.63;;;7.80;99.90;;;;;;2106481;28;20032;-72
2021/11/22 01:18:42;;;;;;;24.85;13.13;;;7.80;99.90;;;;;;2106010;28;20024;-73
2021/11/22 01:19:42;;;;;;;22.38;12.40;;;7.80;99.90;;;;;;2106274;28;20392;-73
2021/11/22 01:20:43;;;;;;;20.83;12.30;;;7.80;99.90;;;;;;2106264;28;20028;-73
2021/11/22 01:21:45;;;;;;;20.63;11.90;;;7.80;99.90;;;;;;2106088;28;20024;-72
2021/11/22 01:22:45;;;;;;;19.38;11.75;;;7.80;99.90;;;;;;2106589;28;20020;-73
2021/11/22 01:23:46;;;;;;;18.92;11.13;;;7.80;99.90;;;;;;2105673;28;20032;-73
2021/11/22 01:24:48;;;;;;;17.45;10.73;;;7.80;99.90;;;;;;2105759;28;20787;-73
2021/11/22 01:25:49;;;;;;;17.88;11.02;;;7.80;99.90;;;;;;2105751;28;20365;-73
2021/11/22 01:26:49;;;;;;;19.52;11.35;;;7.80;99.90;;;;;;2105778;28;20115;-73
2021/11/22 01:27:51;;;;;;;18.25;10.80;;;7.80;99.90;;;;;;2105778;28;20020;-73
2021/11/22 01:28:55;;;;;;;18.65;10.65;;;7.80;99.90;;;;;;2106138;28;20040;-73
2021/11/22 01:29:56;;;;;;;21.90;12.02;;;7.80;99.90;;;;;;2105379;28;20087;-73
2021/11/22 01:30:58;;;;;;;25.90;11.85;;;7.90;99.90;;;;;;2105772;28;20024;-73
2021/11/22 01:31:58;;;;;;;24.58;12.60;;;7.80;99.90;;;;;;2105583;28;20674;-72
2021/11/22 01:32:59;;;;;;;24.95;12.90;;;7.80;99.90;;;;;;2105720;28;20111;-73
2021/11/22 01:34:00;;;;;;;28.60;13.50;;;7.80;99.90;;;;;;2106417;28;20028;-73
2021/11/22 01:35:01;;;;;;;25.63;12.90;;;7.80;99.90;;;;;;2105849;28;20279;-72
2021/11/22 01:36:03;;;;;;;21.67;11.93;;;7.80;99.90;;;;;;2097425;28;20055;-73
2021/11/22 01:37:03;;;;;;;26.75;13.15;;;7.80;99.90;;;;;;2097709;28;20106;-73
2021/11/22 01:38:06;;;;;;;23.00;12.77;;;7.80;99.90;;;;;;2105265;28;20020;-74
2021/11/22 01:39:07;;;;;;;26.42;13.35;;;7.80;99.90;;;;;;2106406;28;20377;-74
2021/11/22 01:40:09;;;;;;;28.02;13.32;;;7.80;99.90;;;;;;2106192;28;20031;-74
2021/11/22 01:41:09;;;;;;;22.98;12.77;;;7.80;99.90;;;;;;2106240;28;20488;-74
2021/11/22 01:42:10;;;;;;;25.48;12.63;;;7.80;99.90;;;;;;2106040;28;20028;-73
2021/11/22 01:43:14;;;;;;;23.42;12.40;;;7.80;99.90;;;;;;2106137;28;20110;-72
2021/11/22 01:44:15;;;;;;;25.77;12.65;;;7.70;99.90;;;;;;2106220;28;20099;-73
2021/11/22 01:45:17;;;;;;;26.05;12.70;;;7.70;99.90;;;;;;2106304;28;20020;-73
2021/11/22 01:46:21;;;;;;;22.38;12.05;;;7.80;99.90;;;;;;2105331;28;20082;-73
2021/11/22 01:47:21;;;;;;;22.50;12.23;;;7.80;99.90;;;;;;2105696;28;20048;-74
2021/11/22 01:48:23;;;;;;;22.27;11.93;;;7.80;99.90;;;;;;2104949;28;20032;-72
2021/11/22 01:49:24;;;;;;;19.55;11.85;;;7.80;99.90;;;;;;2105502;28;20032;-73
2021/11/22 01:50:26;;;;;;;20.85;11.50;;;7.70;99.90;;;;;;2105501;28;20036;-73
2021/11/22 01:51:27;;;;;;;21.77;11.82;;;7.70;99.90;;;;;;2105215;28;20036;-73
2021/11/22 01:52:27;;;;;;;22.25;11.15;;;7.70;99.90;;;;;;2105879;28;20031;-74
2021/11/22 01:53:29;;;;;;;20.67;11.38;;;7.70;99.90;;;;;;2105832;28;20039;-73
2021/11/22 01:54:30;;;;;;;22.23;11.55;;;7.70;99.90;;;;;;2105620;28;20036;-74
2021/11/22 01:55:32;;;;;;;24.00;12.00;;;7.70;99.90;;;;;;2105879;28;20020;-73
2021/11/22 01:56:32;;;;;;;23.75;11.70;;;7.70;99.90;;;;;;2105759;28;20483;-71
2021/11/22 01:57:34;;;;;;;21.45;11.90;;;7.70;99.90;;;;;;2106146;28;20027;-71
2021/11/22 01:58:37;;;;;;;25.45;13.27;;;7.80;99.90;;;;;;2105921;28;20499;-73
2021/11/22 01:59:38;;;;;;;23.90;12.60;;;7.70;99.90;;;;;;2107695;28;20115;-71
2021/11/22 02:00:43;;;;;;;26.05;12.07;;;7.70;99.90;;;;;;2107088;28;20024;-71
2021/11/22 02:01:46;;;;;;;20.55;11.60;;;7.70;99.90;;;;;;2105697;28;20119;-72
2021/11/22 02:02:47;;;;;;;21.05;11.35;;;7.70;99.90;;;;;;2105849;28;20058;-72
2021/11/22 02:03:48;;;;;;;23.15;12.05;;;7.80;99.90;;;;;;2106348;28;20103;-72
2021/11/22 02:04:49;;;;;;;23.23;12.00;;;7.80;99.90;;;;;;2105520;28;20044;-72
2021/11/22 02:05:52;;;;;;;27.80;12.45;;;7.70;99.90;;;;;;2105568;28;20031;-72
2021/11/22 02:06:53;;;;;;;23.35;12.85;;;7.70;99.90;;;;;;2105497;28;20027;-71
2021/11/22 02:07:54;;;;;;;26.17;12.57;;;7.70;99.90;;;;;;2105490;28;20760;-71
2021/11/22 02:08:55;;;;;;;20.65;12.00;;;7.70;99.90;;;;;;2104743;28;20089;-71
2021/11/22 02:09:55;;;;;;;22.75;12.73;;;7.70;99.90;;;;;;2105281;28;20078;-71
2021/11/22 02:10:56;;;;;;;26.42;11.98;;;7.70;99.90;;;;;;2105334;28;20445;-71
2021/11/22 02:11:57;;;;;;;22.77;11.52;;;7.70;99.90;;;;;;2105057;28;20058;-71
2021/11/22 02:12:58;;;;;;;22.85;11.45;;;7.70;99.90;;;;;;2105367;28;20028;-71
2021/11/22 02:13:59;;;;;;;18.92;11.32;;;7.70;99.90;;;;;;2105398;28;20115;-71
2021/11/22 02:15:01;;;;;;;23.27;11.90;;;7.70;99.90;;;;;;2096887;28;20055;-72
2021/11/22 02:16:02;;;;;;;23.73;12.75;;;7.70;99.90;;;;;;2105377;28;20069;-71
2021/11/22 02:17:03;;;;;;;24.67;12.55;;;7.60;99.90;;;;;;2105954;28;20032;-71
2021/11/22 02:18:05;;;;;;;23.83;12.43;;;7.60;99.90;;;;;;2105483;28;20440;-72
2021/11/22 02:19:06;;;;;;;22.52;11.70;;;7.70;99.90;;;;;;2105954;28;20100;-73
2021/11/22 02:20:11;;;;;;;23.52;12.93;;;7.70;99.90;;;;;;2105136;28;20079;-72
2021/11/22 02:21:12;;;;;;;23.65;12.45;;;7.60;99.90;;;;;;2104993;28;20024;-73
2021/11/22 02:22:16;;;;;;;24.83;12.73;;;7.60;99.90;;;;;;2105811;28;20032;-73
2021/11/22 02:23:17;;;;;;;24.65;12.30;;;7.70;99.90;;;;;;2105146;28;20035;-73
2021/11/22 02:24:19;;;;;;;24.92;12.50;;;7.60;99.90;;;;;;2105276;28;20805;-73
2021/11/22 02:25:21;;;;;;;23.10;12.13;;;7.60;99.90;;;;;;2105754;28;20491;-73
2021/11/22 02:26:22;;;;;;;21.40;12.02;;;7.70;99.90;;;;;;2105807;28;20043;-72
2021/11/22 02:27:23;;;;;;;26.23;12.73;;;7.60;99.90;;;;;;2105933;28;20035;-74
2021/11/22 02:28:25;;;;;;;24.90;12.45;;;7.60;99.90;;;;;;2105374;28;20031;-73
2021/11/22 02:29:26;;;;;;;25.42;12.63;;;7.60;99.90;;;;;;2105767;28;20114;-74
2021/11/22 02:30:30;;;;;;;20.92;11.50;;;7.60;99.90;;;;;;2104859;28;20087;-73
2021/11/22 02:31:31;;;;;;;23.85;12.48;;;7.50;99.90;;;;;;2104817;28;20070;-72
2021/11/22 02:32:32;;;;;;;27.17;12.23;;;7.50;99.90;;;;;;2105106;28;20119;-72
2021/11/22 02:33:33;;;;;;;25.92;13.10;;;7.50;99.90;;;;;;2105180;28;20043;-73
2021/11/22 02:34:34;;;;;;;24.50;12.40;;;7.50;99.90;;;;;;2105736;28;20032;-73
2021/11/22 02:35:38;;;;;;;22.45;11.43;;;7.50;99.90;;;;;;2105978;28;20131;-73
2021/11/22 02:36:39;;;;;;;23.52;12.20;;;7.50;99.90;;;;;;2105232;28;20020;-73
2021/11/22 02:37:40;;;;;;;24.20;12.20;;;7.60;99.90;;;;;;2105283;28;20031;-73
2021/11/22 02:38:41;;;;;;;28.38;11.65;;;7.60;99.90;;;;;;2105251;28;20024;-73
2021/11/22 02:39:42;;;;;;;24.10;11.38;;;7.50;99.90;;;;;;2105743;28;20080;-73
2021/11/22 02:40:43;;;;;;;20.80;10.88;;;7.50;99.90;;;;;;2105608;28;20733;-73
2021/11/22 02:41:44;;;;;;;20.77;11.20;;;7.50;99.90;;;;;;2105379;28;20105;-74
2021/11/22 02:42:46;;;;;;;22.75;11.30;;;7.50;99.90;;;;;;2105542;28;20028;-73
2021/11/22 02:43:47;;;;;;;20.42;10.50;;;7.60;99.90;;;;;;2105060;28;20024;-74
2021/11/22 02:44:48;;;;;;;21.05;10.30;;;7.60;99.90;;;;;;2088311;28;20032;-73
2021/11/22 02:45:49;;;;;;;20.77;10.07;;;7.60;99.90;;;;;;2088488;28;20403;-73
2021/11/22 02:46:50;;;;;;;18.67;10.30;;;7.50;99.90;;;;;;2105098;28;20020;-73
2021/11/22 02:47:53;;;;;;;19.20;9.55;;;7.50;99.90;;;;;;2105059;28;20028;-73
2021/11/22 02:48:53;;;;;;;20.38;10.73;;;7.50;99.90;;;;;;2104536;28;20031;-74
2021/11/22 02:49:54;;;;;;;21.85;11.15;;;7.50;99.90;;;;;;2105684;28;20111;-72
2021/11/22 02:50:56;;;;;;;20.45;10.25;;;7.50;99.90;;;;;;2105624;28;20020;-73
2021/11/22 02:51:57;;;;;;;21.70;10.63;;;7.50;99.90;;;;;;2105389;28;20066;-73
2021/11/22 02:52:58;;;;;;;18.60;10.02;;;7.50;99.90;;;;;;2105633;28;20024;-73
2021/11/22 02:54:03;;;;;;;19.17;10.45;;;7.50;99.90;;;;;;2105682;28;20488;-73
2021/11/22 02:55:06;;;;;;;19.85;10.45;;;7.50;99.90;;;;;;2105791;28;20728;-74
2021/11/22 02:56:09;;;;;;;18.23;10.25;;;7.50;99.90;;;;;;2105796;28;20040;-73
2021/11/22 02:57:10;;;;;;;21.40;11.73;;;7.40;99.90;;;;;;2105533;28;20403;-73
2021/11/22 02:58:11;;;;;;;20.95;11.60;;;7.50;99.90;;;;;;2105244;28;20036;-74
2021/11/22 02:59:12;;;;;;;19.23;10.93;;;7.40;99.90;;;;;;2105636;28;20411;-74
2021/11/22 03:00:25;;;;;;;24.05;12.30;;;7.50;99.90;;;;;;2096480;28;20033;-74
2021/11/22 03:01:26;;;;;;;25.27;13.00;;;7.40;99.90;;;;;;2098272;28;20056;-75
2021/11/22 03:02:27;;;;;;;22.52;12.80;;;7.50;99.90;;;;;;2105136;28;20127;-74
2021/11/22 03:03:30;;;;;;;26.67;13.07;;;7.40;99.90;;;;;;2104412;28;20024;-74
2021/11/22 03:04:36;;;;;;;24.92;12.82;;;7.40;99.90;;;;;;2105569;28;20056;-74
2021/11/22 03:05:37;;;;;;;25.10;13.23;;;7.40;99.90;;;;;;2105742;28;20515;-74
2021/11/22 03:06:38;;;;;;;22.25;12.50;;;7.40;99.90;;;;;;2096560;28;20090;-74
2021/11/22 03:07:39;;;;;;;22.00;12.15;;;7.40;99.90;;;;;;2096713;28;20028;-74
2021/11/22 03:08:42;;;;;;;21.35;12.20;;;7.40;99.90;;;;;;2104811;28;20084;-74
2021/11/22 03:09:43;;;;;;;26.42;13.40;;;7.40;99.90;;;;;;2105201;28;20070;-73
2021/11/22 03:10:43;;;;;;;26.77;13.90;;;7.40;99.90;;;;;;2096427;28;20507;-73
2021/11/22 03:11:44;;;;;;;25.85;13.50;;;7.40;99.90;;;;;;2104619;28;20036;-72
2021/11/22 03:12:46;;;;;;;24.38;12.95;;;7.40;99.90;;;;;;2105420;28;20070;-73
2021/11/22 03:13:49;;;;;;;18.88;11.70;;;7.40;99.90;;;;;;2105432;28;20027;-73
2021/11/22 03:14:51;;;;;;;20.67;11.95;;;7.40;99.90;;;;;;2105767;28;20032;-73
2021/11/22 03:15:52;;;;;;;20.20;12.00;;;7.40;99.90;;;;;;2106954;28;20012;-73
2021/11/22 03:16:55;;;;;;;18.35;11.50;;;7.40;99.90;;;;;;2107167;28;20020;-73
2021/11/22 03:17:56;;;;;;;25.13;13.40;;;7.40;99.90;;;;;;2106459;28;20024;-73
2021/11/22 03:18:57;;;;;;;24.90;13.25;;;7.40;99.90;;;;;;2105488;28;20119;-73
2021/11/22 03:19:58;;;;;;;28.38;14.45;;;7.30;99.90;;;;;;2105501;28;20020;-72
2021/11/22 03:20:59;;;;;;;24.08;13.05;;;7.40;99.90;;;;;;2105420;28;20017;-73
2021/11/22 03:22:00;;;;;;;27.77;13.60;;;7.30;99.90;;;;;;2105137;28;20042;-72
2021/11/22 03:23:01;;;;;;;24.95;12.73;;;7.30;99.90;;;;;;2105469;28;20614;-72
2021/11/22 03:24:02;;;;;;;22.67;12.50;;;7.30;99.90;;;;;;2105399;28;20036;-72
2021/11/22 03:25:05;;;;;;;27.73;12.95;;;7.30;99.90;;;;;;2104857;28;20032;-72
2021/11/22 03:26:06;;;;;;;25.08;12.60;;;7.30;99.90;;;;;;2096591;28;20496;-75
2021/11/22 03:27:07;;;;;;;24.08;12.88;;;7.30;99.90;;;;;;2104860;28;20024;-73
2021/11/22 03:28:08;;;;;;;20.27;11.50;;;7.40;99.90;;;;;;2095937;28;20044;-73
2021/11/22 03:29:09;;;;;;;20.15;11.60;;;7.40;99.90;;;;;;2096616;28;20032;-73
2021/11/22 03:30:13;;;;;;;23.65;12.60;;;7.40;99.90;;;;;;2104765;28;20503;-72
2021/11/22 03:31:13;;;;;;;23.77;12.85;;;7.40;99.90;;;;;;2105203;28;20080;-72
2021/11/22 03:32:14;;;;;;;25.50;13.23;;;7.30;99.90;;;;;;2104827;28;20518;-73
2021/11/22 03:33:17;;;;;;;25.45;13.02;;;7.30;99.90;;;;;;2105001;28;20032;-73
2021/11/22 03:34:18;;;;;;;24.95;12.75;;;7.30;99.90;;;;;;2104761;28;20062;-74
2021/11/22 03:35:20;;;;;;;20.58;11.40;;;7.30;99.90;;;;;;2104742;28;20028;-73
2021/11/22 03:36:20;;;;;;;21.60;12.50;;;7.30;99.90;;;;;;2105426;28;20519;-72
2021/11/22 03:37:21;;;;;;;22.95;11.65;;;7.30;99.90;;;;;;2104751;28;20028;-74
2021/11/22 03:38:24;;;;;;;23.33;12.25;;;7.20;99.90;;;;;;2096029;28;20031;-72
2021/11/22 03:39:26;;;;;;;20.73;11.85;;;7.20;99.90;;;;;;2105140;28;20016;-72
2021/11/22 03:40:27;;;;;;;28.58;13.30;;;7.20;99.90;;;;;;2104710;28;20059;-72
2021/11/22 03:41:30;;;;;;;22.08;12.75;;;7.20;99.90;;;;;;2104542;28;20073;-73
2021/11/22 03:42:38;;;;;;;23.38;12.68;;;7.20;99.90;;;;;;2105225;28;20016;-72
2021/11/22 03:43:47;;;;;;;25.65;12.90;;;7.20;99.90;;;;;;2104795;28;20040;-73
2021/11/22 03:44:48;;;;;;;24.05;12.48;;;7.20;99.90;;;;;;2104646;28;20447;-72
2021/11/22 03:45:48;;;;;;;25.42;12.23;;;7.20;99.90;;;;;;2104699;28;20024;-72
2021/11/22 03:46:52;;;;;;;25.30;12.45;;;7.20;99.90;;;;;;2105361;28;20494;-72
2021/11/22 03:47:52;;;;;;;26.52;12.68;;;7.20;99.90;;;;;;2096308;28;20445;-72
2021/11/22 03:48:54;;;;;;;25.85;12.90;;;7.10;99.90;;;;;;2095994;28;20031;-72
2021/11/22 03:49:54;;;;;;;24.45;13.68;;;7.10;99.90;;;;;;2105300;28;20449;-72
2021/11/22 03:50:55;;;;;;;25.10;13.50;;;7.10;99.90;;;;;;2105294;28;20028;-73
2021/11/22 03:51:56;;;;;;;25.10;13.55;;;7.00;99.90;;;;;;2104295;28;20054;-72
2021/11/22 03:52:56;;;;;;;21.98;12.48;;;7.00;99.90;;;;;;2104574;28;20381;-74
2021/11/22 03:53:58;;;;;;;26.00;13.25;;;7.00;99.90;;;;;;2104659;28;20377;-72
2021/11/22 03:54:58;;;;;;;22.83;12.93;;;7.00;99.90;;;;;;2096323;28;20054;-72
2021/11/22 03:56:00;;;;;;;22.15;12.93;;;7.00;99.90;;;;;;2104689;28;20105;-73
2021/11/22 03:57:00;;;;;;;23.77;13.18;;;6.90;99.90;;;;;;2104672;28;20404;-73
2021/11/22 03:58:01;;;;;;;25.55;13.48;;;7.00;99.90;;;;;;2104359;28;20074;-72
2021/11/22 03:59:03;;;;;;;28.65;14.23;;;6.90;99.90;;;;;;2096496;28;20123;-73
2021/11/22 04:00:05;;;;;;;26.45;14.35;;;6.90;99.90;;;;;;2096725;28;20531;-73
2021/11/22 04:01:06;;;;;;;28.40;14.38;;;6.90;99.90;;;;;;2104977;28;20404;-73
2021/11/22 04:02:07;;;;;;;25.30;13.73;;;6.90;99.90;;;;;;2105080;28;20139;-73
2021/11/22 04:03:07;;;;;;;25.58;13.88;;;6.80;99.90;;;;;;2105421;28;20500;-73
2021/11/22 04:04:08;;;;;;;25.33;13.40;;;6.80;99.90;;;;;;2105320;28;20734;-73
2021/11/22 04:05:10;;;;;;;21.60;12.50;;;6.90;99.90;;;;;;2104708;28;20055;-73
2021/11/22 04:06:11;;;;;;;26.42;13.75;;;6.90;99.90;;;;;;2104695;28;20052;-73
2021/11/22 04:07:11;;;;;;;21.75;12.70;;;6.90;99.90;;;;;;2105429;28;20035;-73
2021/11/22 04:08:12;;;;;;;24.00;13.00;;;6.90;99.90;;;;;;2104598;28;20488;-73
2021/11/22 04:09:13;;;;;;;23.00;13.48;;;6.90;99.90;;;;;;2105018;28;20032;-74
2021/11/22 04:10:14;;;;;;;21.77;12.63;;;6.90;99.90;;;;;;2104643;28;20043;-73
2021/11/22 04:11:15;;;;;;;25.40;14.05;;;6.90;99.90;;;;;;2104376;28;20032;-73
2021/11/22 04:12:16;;;;;;;28.00;14.43;;;6.90;99.90;;;;;;2105325;28;20032;-73
2021/11/22 04:13:16;;;;;;;24.77;13.60;;;6.90;99.90;;;;;;2105370;28;20471;-73
2021/11/22 04:14:17;;;;;;;24.23;13.93;;;6.80;99.90;;;;;;2105228;28;20038;-73
2021/11/22 04:15:18;;;;;;;23.42;13.82;;;6.80;99.90;;;;;;2105587;28;20051;-73
2021/11/22 04:16:19;;;;;;;23.15;13.23;;;6.80;99.90;;;;;;2106292;28;20043;-74
2021/11/22 04:17:20;;;;;;;27.58;14.50;;;6.80;99.90;;;;;;2106216;28;20031;-73
2021/11/22 04:18:21;;;;;;;25.58;13.73;;;6.80;99.90;;;;;;2089084;28;20040;-74
2021/11/22 04:19:22;;;;;;;23.48;13.68;;;6.80;99.90;;;;;;2098260;28;20055;-73
2021/11/22 04:20:23;;;;;;;25.55;13.75;;;6.80;99.90;;;;;;2107025;28;20111;-74
2021/11/22 04:21:25;;;;;;;23.65;13.45;;;6.90;99.90;;;;;;2106293;28;20032;-73
2021/11/22 04:22:26;;;;;;;23.00;13.27;;;6.90;99.90;;;;;;2098298;28;20060;-73
2021/11/22 04:23:27;;;;;;;22.20;14.10;;;6.90;99.90;;;;;;2098584;28;20051;-72
2021/11/22 04:24:28;;;;;;;22.73;13.32;;;6.90;99.90;;;;;;2106483;28;20035;-72
2021/11/22 04:25:29;;;;;;;24.60;13.68;;;6.90;99.90;;;;;;2107103;28;20032;-73
2021/11/22 04:26:31;;;;;;;24.00;13.43;;;6.90;99.90;;;;;;2107068;28;20036;-73
2021/11/22 04:27:33;;;;;;;25.92;14.10;;;6.90;99.90;;;;;;2107207;28;20035;-73
2021/11/22 04:28:34;;;;;;;25.70;13.57;;;6.90;99.90;;;;;;2106748;28;20036;-73
2021/11/22 04:29:35;;;;;;;22.83;12.68;;;6.90;99.90;;;;;;2107176;28;20431;-73
2021/11/22 04:30:38;;;;;;;24.83;12.77;;;6.90;99.90;;;;;;2106415;28;20107;-73
2021/11/22 04:31:38;;;;;;;26.80;14.90;;;6.90;99.90;;;;;;2097893;28;20032;-73
2021/11/22 04:32:40;;;;;;;28.88;14.93;;;6.90;99.90;;;;;;2106403;28;20028;-73
2021/11/22 04:33:41;;;;;;;25.25;13.98;;;6.80;99.90;;;;;;2107090;28;20511;-73
2021/11/22 04:34:41;;;;;;;27.17;15.93;;;6.80;99.90;;;;;;2106560;28;20470;-72
2021/11/22 04:35:42;;;;;;;30.02;16.10;;;6.80;99.90;;;;;;2107210;28;20107;-73
2021/11/22 04:36:43;;;;;;;29.42;16.10;;;6.80;99.90;;;;;;2107873;28;20028;-73
2021/11/22 04:37:44;;;;;;;28.75;15.60;;;6.80;99.90;;;;;;2099371;28;20031;-73
2021/11/22 04:38:45;;;;;;;29.05;16.38;;;6.80;99.90;;;;;;2107259;28;20148;-72
2021/11/22 04:39:48;;;;;;;28.98;16.30;;;6.80;99.90;;;;;;2107379;28;20449;-73
2021/11/22 04:40:50;;;;;;;33.72;16.95;;;6.80;99.90;;;;;;2107475;28;20016;-73
2021/11/22 04:41:50;;;;;;;35.03;17.27;;;6.70;99.90;;;;;;2107989;28;20032;-72
2021/11/22 04:42:52;;;;;;;27.73;16.02;;;6.70;99.90;;;;;;2109118;28;20435;-73
2021/11/22 04:43:53;;;;;;;26.65;14.60;;;6.70;99.90;;;;;;2106817;28;20024;-73
2021/11/22 04:44:54;;;;;;;29.38;15.82;;;6.70;99.90;;;;;;2106017;28;20479;-75
2021/11/22 04:45:55;;;;;;;34.78;17.55;;;6.70;99.90;;;;;;2097650;28;20070;-73
2021/11/22 04:46:56;;;;;;;32.58;17.02;;;6.70;99.90;;;;;;2106222;28;20021;-73
2021/11/22 04:47:59;;;;;;;28.33;15.95;;;6.70;99.90;;;;;;2105825;28;20023;-73
2021/11/22 04:49:00;;;;;;;25.83;15.57;;;6.70;99.90;;;;;;2098064;28;20372;-73
2021/11/22 04:50:01;;;;;;;30.77;16.42;;;6.80;99.90;;;;;;2105940;28;20024;-73
2021/11/22 04:51:02;;;;;;;29.92;16.27;;;6.70;99.90;;;;;;2097610;28;20024;-73
2021/11/22 04:52:06;;;;;;;35.50;16.83;;;6.80;99.90;;;;;;2097603;28;20043;-73
2021/11/22 04:53:07;;;;;;;30.75;16.70;;;6.70;99.90;;;;;;2106251;28;20032;-73
2021/11/22 04:54:08;;;;;;;26.77;15.23;;;6.70;99.90;;;;;;2106884;28;20469;-73
2021/11/22 04:55:09;;;;;;;26.73;15.38;;;6.70;99.90;;;;;;2106660;28;20112;-73
2021/11/22 04:56:10;;;;;;;30.90;15.80;;;6.80;99.90;;;;;;2106717;28;20027;-73
2021/11/22 04:57:11;;;;;;;26.65;15.23;;;6.80;99.90;;;;;;2106583;28;20021;-73
2021/11/22 04:58:11;;;;;;;31.15;16.83;;;6.80;99.90;;;;;;2106175;28;20027;-72
2021/11/22 04:59:12;;;;;;;31.52;16.00;;;6.80;99.90;;;;;;2105979;28;20572;-72
2021/11/22 05:00:16;;;;;;;26.85;15.80;;;6.80;99.90;;;;;;2106008;28;20028;-73
2021/11/22 05:01:16;;;;;;;28.33;15.82;;;6.70;99.90;;;;;;2097297;28;20118;-74
2021/11/22 05:02:17;;;;;;;30.70;15.23;;;6.70;99.90;;;;;;2081134;28;20033;-73
2021/11/22 05:03:18;;;;;;;29.58;16.38;;;6.70;99.90;;;;;;2097633;28;20032;-74
2021/11/22 05:04:18;;;;;;;27.45;15.57;;;6.70;99.90;;;;;;2106651;28;20020;-73
2021/11/22 05:05:20;;;;;;;26.75;15.05;;;6.70;99.90;;;;;;2106514;28;20032;-73
2021/11/22 05:06:21;;;;;;;30.75;16.25;;;6.70;99.90;;;;;;2106612;28;20109;-74
2021/11/22 05:07:21;;;;;;;30.90;16.15;;;6.70;99.90;;;;;;2106431;28;20020;-74
2021/11/22 05:08:22;;;;;;;28.85;16.30;;;6.70;99.90;;;;;;2106165;28;20028;-73
2021/11/22 05:09:24;;;;;;;31.60;17.00;;;6.70;99.90;;;;;;2106428;28;20056;-73
2021/11/22 05:10:28;;;;;;;31.73;16.83;;;6.70;99.90;;;;;;2105860;28;20479;-75
2021/11/22 05:11:29;;;;;;;30.63;16.40;;;6.70;99.90;;;;;;2105574;28;20028;-74
2021/11/22 05:12:30;;;;;;;29.70;16.20;;;6.60;99.90;;;;;;2105788;28;20446;-74
2021/11/22 05:13:31;;;;;;;26.75;14.98;;;6.60;99.90;;;;;;2106138;28;20074;-74
2021/11/22 05:14:32;;;;;;;24.88;14.73;;;6.60;99.90;;;;;;2106586;28;20036;-73
2021/11/22 05:15:35;;;;;;;24.75;14.77;;;6.60;99.90;;;;;;2106472;28;20035;-73
2021/11/22 05:16:36;;;;;;;26.70;15.00;;;6.60;99.90;;;;;;2106574;28;20027;-73